sensor_id;sensor_type;location;lat;lon;timestamp;P1;durP1;ratioP1;P2;durP2;ratioP2
69542;SDS011;56762;49.494;11.768;2023-01-16T00:01:51;4.13;;;0.70;;
69542;SDS011;56762;49.494;11.768;2023-01-16T00:04:21;3.10;;;0.77;;
69542;SDS011;56762;49.494;11.768;2023-01-16T00:06:49;2.78;;;0.60;;
69542;SDS011;56762;49.494;11.768;2023-01-16T00:09:17;1.92;;;0.50;;
69542;SDS011;56762;49.494;11.768;2023-01-16T00:11:47;2.77;;;0.30;;
69542;SDS011;56762;49.494;11.768;2023-01-16T00:14:14;3.53;;;0.30;;
69542;SDS011;56762;49.494;11.768;2023-01-16T00:16:42;2.15;;;0.50;;
69542;SDS011;56762;49.494;11.768;2023-01-16T00:19:10;2.67;;;0.35;;
69542;SDS011;56762;49.494;11.768;2023-01-16T00:21:38;2.35;;;0.35;;
69542;SDS011;56762;49.494;11.768;2023-01-16T00:24:07;3.10;;;0.10;;
69542;SDS011;56762;49.494;11.768;2023-01-16T00:26:35;1.45;;;0.40;;
69542;SDS011;56762;49.494;11.768;2023-01-16T00:29:04;3.28;;;0.45;;
69542;SDS011;56762;49.494;11.768;2023-01-16T00:31:32;2.75;;;0.55;;
69542;SDS011;56762;49.494;11.768;2023-01-16T00:34:00;4.22;;;1.20;;
69542;SDS011;56762;49.494;11.768;2023-01-16T00:36:28;3.90;;;1.33;;
69542;SDS011;56762;49.494;11.768;2023-01-16T00:38:56;4.10;;;1.08;;
69542;SDS011;56762;49.494;11.768;2023-01-16T00:41:24;5.57;;;1.40;;
69542;SDS011;56762;49.494;11.768;2023-01-16T00:43:52;4.75;;;1.55;;
69542;SDS011;56762;49.494;11.768;2023-01-16T00:46:24;5.75;;;1.10;;
69542;SDS011;56762;49.494;11.768;2023-01-16T00:48:52;5.23;;;0.87;;
69542;SDS011;56762;49.494;11.768;2023-01-16T00:51:20;1.13;;;0.40;;
69542;SDS011;56762;49.494;11.768;2023-01-16T00:53:48;3.45;;;0.40;;
69542;SDS011;56762;49.494;11.768;2023-01-16T00:56:16;3.83;;;0.47;;
69542;SDS011;56762;49.494;11.768;2023-01-16T00:58:44;2.35;;;0.30;;
69542;SDS011;56762;49.494;11.768;2023-01-16T01:01:12;1.63;;;0.30;;
69542;SDS011;56762;49.494;11.768;2023-01-16T01:03:42;3.83;;;0.60;;
69542;SDS011;56762;49.494;11.768;2023-01-16T01:06:10;2.72;;;0.70;;
69542;SDS011;56762;49.494;11.768;2023-01-16T01:08:38;1.50;;;0.40;;
69542;SDS011;56762;49.494;11.768;2023-01-16T01:11:07;1.88;;;0.45;;
69542;SDS011;56762;49.494;11.768;2023-01-16T01:13:36;1.30;;;0.10;;
69542;SDS011;56762;49.494;11.768;2023-01-16T01:16:04;2.88;;;0.35;;
69542;SDS011;56762;49.494;11.768;2023-01-16T01:18:33;2.03;;;0.20;;
69542;SDS011;56762;49.494;11.768;2023-01-16T01:21:04;1.85;;;0.13;;
69542;SDS011;56762;49.494;11.768;2023-01-16T01:23:32;1.58;;;0.20;;
69542;SDS011;56762;49.494;11.768;2023-01-16T01:26:04;1.70;;;0.17;;
69542;SDS011;56762;49.494;11.768;2023-01-16T01:28:33;3.08;;;0.10;;
69542;SDS011;56762;49.494;11.768;2023-01-16T01:31:04;0.77;;;0.15;;
69542;SDS011;56762;49.494;11.768;2023-01-16T01:33:32;1.15;;;0.10;;
69542;SDS011;56762;49.494;11.768;2023-01-16T01:36:01;1.13;;;0.10;;
69542;SDS011;56762;49.494;11.768;2023-01-16T01:38:31;1.50;;;0.10;;
69542;SDS011;56762;49.494;11.768;2023-01-16T01:40:59;3.95;;;0.35;;
69542;SDS011;56762;49.494;11.768;2023-01-16T01:43:41;1.73;;;0.20;;
69542;SDS011;56762;49.494;11.768;2023-01-16T01:46:13;1.00;;;0.15;;
69542;SDS011;56762;49.494;11.768;2023-01-16T01:48:48;1.23;;;0.20;;
69542;SDS011;56762;49.494;11.768;2023-01-16T01:51:19;1.33;;;0.20;;
69542;SDS011;56762;49.494;11.768;2023-01-16T01:53:52;1.30;;;0.20;;
69542;SDS011;56762;49.494;11.768;2023-01-16T01:56:24;1.90;;;0.25;;
69542;SDS011;56762;49.494;11.768;2023-01-16T01:58:56;0.70;;;0.20;;
69542;SDS011;56762;49.494;11.768;2023-01-16T02:01:29;1.85;;;0.22;;
69542;SDS011;56762;49.494;11.768;2023-01-16T02:03:58;1.73;;;0.10;;
69542;SDS011;56762;49.494;11.768;2023-01-16T02:06:30;2.10;;;0.10;;
69542;SDS011;56762;49.494;11.768;2023-01-16T02:09:05;0.70;;;0.20;;
69542;SDS011;56762;49.494;11.768;2023-01-16T02:11:34;1.58;;;0.20;;
69542;SDS011;56762;49.494;11.768;2023-01-16T02:14:06;1.95;;;0.30;;
69542;SDS011;56762;49.494;11.768;2023-01-16T02:16:36;2.40;;;0.10;;
69542;SDS011;56762;49.494;11.768;2023-01-16T02:19:24;1.00;;;0.20;;
69542;SDS011;56762;49.494;11.768;2023-01-16T02:22:09;1.73;;;0.10;;
69542;SDS011;56762;49.494;11.768;2023-01-16T02:25:03;2.90;;;0.30;;
69542;SDS011;56762;49.494;11.768;2023-01-16T02:28:06;4.07;;;0.10;;
69542;SDS011;56762;49.494;11.768;2023-01-16T02:30:57;1.77;;;0.50;;
69542;SDS011;56762;49.494;11.768;2023-01-16T02:33:33;1.02;;;0.22;;
69542;SDS011;56762;49.494;11.768;2023-01-16T02:36:09;1.88;;;0.10;;
69542;SDS011;56762;49.494;11.768;2023-01-16T02:38:46;1.73;;;0.10;;
69542;SDS011;56762;49.494;11.768;2023-01-16T02:41:25;2.78;;;0.28;;
69542;SDS011;56762;49.494;11.768;2023-01-16T02:44:09;1.23;;;0.10;;
69542;SDS011;56762;49.494;11.768;2023-01-16T02:46:47;1.25;;;0.10;;
69542;SDS011;56762;49.494;11.768;2023-01-16T02:49:26;2.63;;;0.10;;
69542;SDS011;56762;49.494;11.768;2023-01-16T02:52:01;1.63;;;0.10;;
69542;SDS011;56762;49.494;11.768;2023-01-16T02:54:36;1.17;;;0.10;;
69542;SDS011;56762;49.494;11.768;2023-01-16T02:57:10;0.70;;;0.10;;
69542;SDS011;56762;49.494;11.768;2023-01-16T02:59:42;2.60;;;0.10;;
69542;SDS011;56762;49.494;11.768;2023-01-16T03:02:11;0.38;;;0.00;;
69542;SDS011;56762;49.494;11.768;2023-01-16T03:04:41;2.05;;;0.13;;
69542;SDS011;56762;49.494;11.768;2023-01-16T03:07:22;1.15;;;0.20;;
69542;SDS011;56762;49.494;11.768;2023-01-16T03:10:05;0.40;;;0.00;;
69542;SDS011;56762;49.494;11.768;2023-01-16T03:12:48;0.73;;;0.10;;
69542;SDS011;56762;49.494;11.768;2023-01-16T03:15:28;2.95;;;0.28;;
69542;SDS011;56762;49.494;11.768;2023-01-16T03:18:06;3.28;;;0.10;;
69542;SDS011;56762;49.494;11.768;2023-01-16T03:20:39;2.63;;;0.20;;
69542;SDS011;56762;49.494;11.768;2023-01-16T03:23:16;2.00;;;0.10;;
69542;SDS011;56762;49.494;11.768;2023-01-16T03:25:51;0.95;;;0.15;;
69542;SDS011;56762;49.494;11.768;2023-01-16T03:28:24;1.55;;;0.10;;
69542;SDS011;56762;49.494;11.768;2023-01-16T03:31:03;1.98;;;0.20;;
69542;SDS011;56762;49.494;11.768;2023-01-16T03:34:00;0.95;;;0.08;;
69542;SDS011;56762;49.494;11.768;2023-01-16T03:36:40;2.03;;;0.20;;
69542;SDS011;56762;49.494;11.768;2023-01-16T03:39:14;1.27;;;0.15;;
69542;SDS011;56762;49.494;11.768;2023-01-16T03:41:44;0.88;;;0.10;;
69542;SDS011;56762;49.494;11.768;2023-01-16T03:44:17;0.77;;;0.00;;
69542;SDS011;56762;49.494;11.768;2023-01-16T03:46:52;1.23;;;0.10;;
69542;SDS011;56762;49.494;11.768;2023-01-16T03:49:23;2.43;;;0.20;;
69542;SDS011;56762;49.494;11.768;2023-01-16T03:51:56;2.05;;;0.20;;
69542;SDS011;56762;49.494;11.768;2023-01-16T03:54:28;2.05;;;0.32;;
69542;SDS011;56762;49.494;11.768;2023-01-16T03:57:05;2.53;;;0.30;;
69542;SDS011;56762;49.494;11.768;2023-01-16T03:59:37;0.80;;;0.00;;
69542;SDS011;56762;49.494;11.768;2023-01-16T04:02:08;2.07;;;0.20;;
69542;SDS011;56762;49.494;11.768;2023-01-16T04:04:42;3.53;;;0.15;;
69542;SDS011;56762;49.494;11.768;2023-01-16T04:07:17;3.80;;;0.30;;
69542;SDS011;56762;49.494;11.768;2023-01-16T04:09:52;1.25;;;0.20;;
69542;SDS011;56762;49.494;11.768;2023-01-16T04:12:23;2.83;;;0.32;;
69542;SDS011;56762;49.494;11.768;2023-01-16T04:14:56;4.43;;;0.70;;
69542;SDS011;56762;49.494;11.768;2023-01-16T04:17:26;2.25;;;0.30;;
69542;SDS011;56762;49.494;11.768;2023-01-16T04:19:57;2.67;;;0.32;;
69542;SDS011;56762;49.494;11.768;2023-01-16T04:22:26;1.73;;;0.13;;
69542;SDS011;56762;49.494;11.768;2023-01-16T04:24:56;0.57;;;0.05;;
69542;SDS011;56762;49.494;11.768;2023-01-16T04:27:26;0.43;;;0.10;;
69542;SDS011;56762;49.494;11.768;2023-01-16T04:29:54;1.08;;;0.10;;
69542;SDS011;56762;49.494;11.768;2023-01-16T04:32:21;1.00;;;0.00;;
69542;SDS011;56762;49.494;11.768;2023-01-16T04:34:49;1.38;;;0.20;;
69542;SDS011;56762;49.494;11.768;2023-01-16T04:37:20;1.20;;;0.10;;
69542;SDS011;56762;49.494;11.768;2023-01-16T04:39:47;1.37;;;0.10;;
69542;SDS011;56762;49.494;11.768;2023-01-16T04:42:15;2.50;;;0.08;;
69542;SDS011;56762;49.494;11.768;2023-01-16T04:44:43;0.88;;;0.10;;
69542;SDS011;56762;49.494;11.768;2023-01-16T04:47:11;3.38;;;0.10;;
69542;SDS011;56762;49.494;11.768;2023-01-16T04:49:39;0.63;;;0.10;;
69542;SDS011;56762;49.494;11.768;2023-01-16T04:52:07;0.43;;;0.00;;
69542;SDS011;56762;49.494;11.768;2023-01-16T04:54:36;1.58;;;0.10;;
69542;SDS011;56762;49.494;11.768;2023-01-16T04:57:04;2.65;;;0.30;;
69542;SDS011;56762;49.494;11.768;2023-01-16T04:59:32;1.77;;;0.30;;
69542;SDS011;56762;49.494;11.768;2023-01-16T05:01:59;4.72;;;0.40;;
69542;SDS011;56762;49.494;11.768;2023-01-16T05:04:27;2.73;;;0.47;;
69542;SDS011;56762;49.494;11.768;2023-01-16T05:06:55;2.15;;;0.30;;
69542;SDS011;56762;49.494;11.768;2023-01-16T05:09:23;1.60;;;0.20;;
69542;SDS011;56762;49.494;11.768;2023-01-16T05:11:52;1.95;;;0.17;;
69542;SDS011;56762;49.494;11.768;2023-01-16T05:14:20;1.33;;;0.10;;
69542;SDS011;56762;49.494;11.768;2023-01-16T05:16:48;3.57;;;0.20;;
69542;SDS011;56762;49.494;11.768;2023-01-16T05:19:16;0.68;;;0.10;;
69542;SDS011;56762;49.494;11.768;2023-01-16T05:21:44;1.40;;;0.10;;
69542;SDS011;56762;49.494;11.768;2023-01-16T05:24:11;1.10;;;0.10;;
69542;SDS011;56762;49.494;11.768;2023-01-16T05:26:39;0.50;;;0.10;;
69542;SDS011;56762;49.494;11.768;2023-01-16T05:29:08;1.90;;;0.10;;
69542;SDS011;56762;49.494;11.768;2023-01-16T05:31:36;2.05;;;0.20;;
69542;SDS011;56762;49.494;11.768;2023-01-16T05:34:04;1.52;;;0.10;;
69542;SDS011;56762;49.494;11.768;2023-01-16T05:36:31;1.60;;;0.45;;
69542;SDS011;56762;49.494;11.768;2023-01-16T05:38:59;1.05;;;0.13;;
69542;SDS011;56762;49.494;11.768;2023-01-16T05:41:27;3.00;;;0.60;;
69542;SDS011;56762;49.494;11.768;2023-01-16T05:43:54;2.35;;;0.20;;
69542;SDS011;56762;49.494;11.768;2023-01-16T05:46:23;2.83;;;0.20;;
69542;SDS011;56762;49.494;11.768;2023-01-16T05:48:53;1.48;;;0.20;;
69542;SDS011;56762;49.494;11.768;2023-01-16T05:51:21;1.75;;;0.50;;
69542;SDS011;56762;49.494;11.768;2023-01-16T05:53:49;1.37;;;0.20;;
69542;SDS011;56762;49.494;11.768;2023-01-16T05:56:17;3.17;;;0.40;;
69542;SDS011;56762;49.494;11.768;2023-01-16T05:58:47;1.50;;;0.40;;
69542;SDS011;56762;49.494;11.768;2023-01-16T06:01:14;3.25;;;0.20;;
69542;SDS011;56762;49.494;11.768;2023-01-16T06:03:44;2.03;;;0.20;;
69542;SDS011;56762;49.494;11.768;2023-01-16T06:06:11;2.50;;;0.20;;
69542;SDS011;56762;49.494;11.768;2023-01-16T06:08:42;2.55;;;0.30;;
69542;SDS011;56762;49.494;11.768;2023-01-16T06:11:10;1.45;;;0.30;;
69542;SDS011;56762;49.494;11.768;2023-01-16T06:13:38;2.30;;;0.43;;
69542;SDS011;56762;49.494;11.768;2023-01-16T06:16:05;3.40;;;0.28;;
69542;SDS011;56762;49.494;11.768;2023-01-16T06:18:34;3.97;;;0.53;;
69542;SDS011;56762;49.494;11.768;2023-01-16T06:21:03;2.78;;;0.70;;
69542;SDS011;56762;49.494;11.768;2023-01-16T06:23:32;3.53;;;1.45;;
69542;SDS011;56762;49.494;11.768;2023-01-16T06:26:00;3.15;;;0.70;;
69542;SDS011;56762;49.494;11.768;2023-01-16T06:28:29;3.08;;;0.82;;
69542;SDS011;56762;49.494;11.768;2023-01-16T06:30:56;3.53;;;0.60;;
69542;SDS011;56762;49.494;11.768;2023-01-16T06:33:24;3.15;;;1.30;;
69542;SDS011;56762;49.494;11.768;2023-01-16T06:35:52;2.70;;;0.80;;
69542;SDS011;56762;49.494;11.768;2023-01-16T06:38:22;2.75;;;0.60;;
69542;SDS011;56762;49.494;11.768;2023-01-16T06:40:50;3.90;;;1.20;;
69542;SDS011;56762;49.494;11.768;2023-01-16T06:43:22;5.40;;;0.90;;
69542;SDS011;56762;49.494;11.768;2023-01-16T06:45:50;5.20;;;1.85;;
69542;SDS011;56762;49.494;11.768;2023-01-16T06:48:18;4.95;;;1.13;;
69542;SDS011;56762;49.494;11.768;2023-01-16T06:50:46;3.05;;;0.80;;
69542;SDS011;56762;49.494;11.768;2023-01-16T06:53:14;4.70;;;1.20;;
69542;SDS011;56762;49.494;11.768;2023-01-16T06:55:43;4.23;;;1.23;;
69542;SDS011;56762;49.494;11.768;2023-01-16T06:58:11;4.70;;;0.88;;
69542;SDS011;56762;49.494;11.768;2023-01-16T07:00:38;2.50;;;0.65;;
69542;SDS011;56762;49.494;11.768;2023-01-16T07:03:08;3.38;;;0.98;;
69542;SDS011;56762;49.494;11.768;2023-01-16T07:05:36;3.60;;;1.17;;
69542;SDS011;56762;49.494;11.768;2023-01-16T07:08:04;5.87;;;0.90;;
69542;SDS011;56762;49.494;11.768;2023-01-16T07:10:32;5.07;;;1.20;;
69542;SDS011;56762;49.494;11.768;2023-01-16T07:13:02;5.15;;;1.45;;
69542;SDS011;56762;49.494;11.768;2023-01-16T07:15:30;7.22;;;1.60;;
69542;SDS011;56762;49.494;11.768;2023-01-16T07:18:16;6.88;;;1.20;;
69542;SDS011;56762;49.494;11.768;2023-01-16T07:21:02;6.03;;;1.00;;
69542;SDS011;56762;49.494;11.768;2023-01-16T07:23:50;3.65;;;0.77;;
69542;SDS011;56762;49.494;11.768;2023-01-16T07:26:23;3.95;;;0.70;;
69542;SDS011;56762;49.494;11.768;2023-01-16T07:28:54;6.88;;;1.75;;
69542;SDS011;56762;49.494;11.768;2023-01-16T07:31:24;6.60;;;1.67;;
69542;SDS011;56762;49.494;11.768;2023-01-16T07:33:53;5.97;;;1.20;;
69542;SDS011;56762;49.494;11.768;2023-01-16T07:36:21;4.47;;;1.65;;
69542;SDS011;56762;49.494;11.768;2023-01-16T07:38:49;4.35;;;1.25;;
69542;SDS011;56762;49.494;11.768;2023-01-16T07:41:16;6.28;;;1.50;;
69542;SDS011;56762;49.494;11.768;2023-01-16T07:43:44;5.88;;;1.75;;
69542;SDS011;56762;49.494;11.768;2023-01-16T07:46:13;5.70;;;1.63;;
69542;SDS011;56762;49.494;11.768;2023-01-16T07:48:41;6.35;;;1.30;;
69542;SDS011;56762;49.494;11.768;2023-01-16T07:51:09;7.65;;;1.35;;
69542;SDS011;56762;49.494;11.768;2023-01-16T07:53:36;6.93;;;1.00;;
69542;SDS011;56762;49.494;11.768;2023-01-16T07:56:04;6.75;;;1.02;;
69542;SDS011;56762;49.494;11.768;2023-01-16T07:58:32;7.80;;;1.97;;
69542;SDS011;56762;49.494;11.768;2023-01-16T08:01:00;9.52;;;2.55;;
69542;SDS011;56762;49.494;11.768;2023-01-16T08:03:29;5.47;;;1.13;;
69542;SDS011;56762;49.494;11.768;2023-01-16T08:05:57;7.38;;;0.93;;
69542;SDS011;56762;49.494;11.768;2023-01-16T08:08:25;5.65;;;1.50;;
69542;SDS011;56762;49.494;11.768;2023-01-16T08:10:53;4.23;;;0.87;;
69542;SDS011;56762;49.494;11.768;2023-01-16T08:13:21;5.55;;;1.30;;
69542;SDS011;56762;49.494;11.768;2023-01-16T08:15:49;4.63;;;0.93;;
69542;SDS011;56762;49.494;11.768;2023-01-16T08:18:17;6.70;;;1.60;;
69542;SDS011;56762;49.494;11.768;2023-01-16T08:20:47;4.88;;;1.40;;
69542;SDS011;56762;49.494;11.768;2023-01-16T08:23:15;4.00;;;0.90;;
69542;SDS011;56762;49.494;11.768;2023-01-16T08:25:42;8.13;;;1.60;;
69542;SDS011;56762;49.494;11.768;2023-01-16T08:28:10;5.13;;;0.77;;
69542;SDS011;56762;49.494;11.768;2023-01-16T08:30:38;6.03;;;1.10;;
69542;SDS011;56762;49.494;11.768;2023-01-16T08:33:05;7.10;;;1.35;;
69542;SDS011;56762;49.494;11.768;2023-01-16T08:35:34;5.60;;;1.37;;
69542;SDS011;56762;49.494;11.768;2023-01-16T08:38:06;3.80;;;0.75;;
69542;SDS011;56762;49.494;11.768;2023-01-16T08:40:34;6.88;;;1.30;;
69542;SDS011;56762;49.494;11.768;2023-01-16T08:43:02;5.03;;;1.45;;
69542;SDS011;56762;49.494;11.768;2023-01-16T08:45:47;3.97;;;0.90;;
69542;SDS011;56762;49.494;11.768;2023-01-16T08:48:46;3.40;;;0.63;;
69542;SDS011;56762;49.494;11.768;2023-01-16T08:51:32;5.28;;;1.33;;
69542;SDS011;56762;49.494;11.768;2023-01-16T08:54:01;10.30;;;2.42;;
69542;SDS011;56762;49.494;11.768;2023-01-16T08:56:29;7.00;;;1.42;;
69542;SDS011;56762;49.494;11.768;2023-01-16T08:58:56;3.33;;;0.90;;
69542;SDS011;56762;49.494;11.768;2023-01-16T09:01:24;6.07;;;1.37;;
69542;SDS011;56762;49.494;11.768;2023-01-16T09:03:52;6.95;;;1.90;;
69542;SDS011;56762;49.494;11.768;2023-01-16T09:06:20;5.70;;;1.23;;
69542;SDS011;56762;49.494;11.768;2023-01-16T09:08:49;5.47;;;1.15;;
69542;SDS011;56762;49.494;11.768;2023-01-16T09:11:18;8.55;;;1.92;;
69542;SDS011;56762;49.494;11.768;2023-01-16T09:14:03;7.53;;;1.27;;
69542;SDS011;56762;49.494;11.768;2023-01-16T09:16:49;9.38;;;1.75;;
69542;SDS011;56762;49.494;11.768;2023-01-16T09:19:17;4.55;;;1.10;;
69542;SDS011;56762;49.494;11.768;2023-01-16T09:21:45;4.28;;;0.65;;
69542;SDS011;56762;49.494;11.768;2023-01-16T09:24:13;8.63;;;2.15;;
69542;SDS011;56762;49.494;11.768;2023-01-16T09:26:42;5.33;;;1.17;;
69542;SDS011;56762;49.494;11.768;2023-01-16T09:29:10;3.47;;;0.73;;
69542;SDS011;56762;49.494;11.768;2023-01-16T09:31:37;5.70;;;1.25;;
69542;SDS011;56762;49.494;11.768;2023-01-16T09:34:05;5.70;;;1.00;;
69542;SDS011;56762;49.494;11.768;2023-01-16T09:36:34;6.93;;;1.35;;
69542;SDS011;56762;49.494;11.768;2023-01-16T09:39:01;4.13;;;0.60;;
69542;SDS011;56762;49.494;11.768;2023-01-16T09:41:29;12.93;;;2.70;;
69542;SDS011;56762;49.494;11.768;2023-01-16T09:44:20;6.53;;;1.58;;
69542;SDS011;56762;49.494;11.768;2023-01-16T09:46:49;8.13;;;2.20;;
69542;SDS011;56762;49.494;11.768;2023-01-16T09:49:19;5.15;;;1.67;;
69542;SDS011;56762;49.494;11.768;2023-01-16T09:51:52;4.70;;;0.93;;
69542;SDS011;56762;49.494;11.768;2023-01-16T09:54:43;3.65;;;0.70;;
69542;SDS011;56762;49.494;11.768;2023-01-16T09:57:32;3.80;;;0.73;;
69542;SDS011;56762;49.494;11.768;2023-01-16T10:00:21;4.05;;;0.70;;
69542;SDS011;56762;49.494;11.768;2023-01-16T10:02:51;1.88;;;0.50;;
69542;SDS011;56762;49.494;11.768;2023-01-16T10:05:18;1.63;;;0.40;;
69542;SDS011;56762;49.494;11.768;2023-01-16T10:07:50;1.80;;;0.30;;
69542;SDS011;56762;49.494;11.768;2023-01-16T10:10:28;1.55;;;0.28;;
69542;SDS011;56762;49.494;11.768;2023-01-16T10:16:15;5.45;;;0.30;;
69542;SDS011;56762;49.494;11.768;2023-01-16T10:18:52;0.97;;;0.20;;
69542;SDS011;56762;49.494;11.768;2023-01-16T10:24:19;3.13;;;0.43;;
69542;SDS011;56762;49.494;11.768;2023-01-16T10:26:57;4.55;;;0.15;;
69542;SDS011;56762;49.494;11.768;2023-01-16T10:29:27;1.95;;;0.20;;
69542;SDS011;56762;49.494;11.768;2023-01-16T10:32:02;3.13;;;0.27;;
69542;SDS011;56762;49.494;11.768;2023-01-16T10:34:38;1.17;;;0.22;;
69542;SDS011;56762;49.494;11.768;2023-01-16T10:37:13;2.55;;;0.30;;
69542;SDS011;56762;49.494;11.768;2023-01-16T10:39:42;2.42;;;0.20;;
69542;SDS011;56762;49.494;11.768;2023-01-16T10:42:11;1.58;;;0.35;;
69542;SDS011;56762;49.494;11.768;2023-01-16T10:44:59;3.20;;;0.20;;
69542;SDS011;56762;49.494;11.768;2023-01-16T10:47:56;0.45;;;0.10;;
69542;SDS011;56762;49.494;11.768;2023-01-16T10:50:41;1.75;;;0.10;;
69542;SDS011;56762;49.494;11.768;2023-01-16T10:53:10;2.67;;;0.22;;
69542;SDS011;56762;49.494;11.768;2023-01-16T10:55:39;1.98;;;0.13;;
69542;SDS011;56762;49.494;11.768;2023-01-16T10:58:14;2.93;;;0.20;;
69542;SDS011;56762;49.494;11.768;2023-01-16T11:00:48;1.10;;;0.20;;
69542;SDS011;56762;49.494;11.768;2023-01-16T11:03:19;2.70;;;0.20;;
69542;SDS011;56762;49.494;11.768;2023-01-16T11:06:05;2.60;;;0.13;;
69542;SDS011;56762;49.494;11.768;2023-01-16T11:08:34;1.02;;;0.10;;
69542;SDS011;56762;49.494;11.768;2023-01-16T11:11:02;1.17;;;0.10;;
69542;SDS011;56762;49.494;11.768;2023-01-16T11:13:30;1.75;;;0.20;;
69542;SDS011;56762;49.494;11.768;2023-01-16T11:16:17;1.90;;;0.10;;
69542;SDS011;56762;49.494;11.768;2023-01-16T11:19:16;1.17;;;0.10;;
69542;SDS011;56762;49.494;11.768;2023-01-16T11:21:48;1.23;;;0.10;;
69542;SDS011;56762;49.494;11.768;2023-01-16T11:24:19;0.70;;;0.20;;
69542;SDS011;56762;49.494;11.768;2023-01-16T11:26:49;1.17;;;0.10;;
69542;SDS011;56762;49.494;11.768;2023-01-16T11:29:19;3.92;;;0.22;;
69542;SDS011;56762;49.494;11.768;2023-01-16T11:31:50;1.40;;;0.10;;
69542;SDS011;56762;49.494;11.768;2023-01-16T11:34:23;0.93;;;0.10;;
69542;SDS011;56762;49.494;11.768;2023-01-16T11:36:53;4.10;;;0.20;;
69542;SDS011;56762;49.494;11.768;2023-01-16T11:39:24;1.35;;;0.03;;
69542;SDS011;56762;49.494;11.768;2023-01-16T11:41:56;0.40;;;0.05;;
69542;SDS011;56762;49.494;11.768;2023-01-16T11:44:26;1.38;;;0.05;;
69542;SDS011;56762;49.494;11.768;2023-01-16T11:47:14;4.72;;;0.20;;
69542;SDS011;56762;49.494;11.768;2023-01-16T11:49:46;2.20;;;0.20;;
69542;SDS011;56762;49.494;11.768;2023-01-16T11:52:16;1.67;;;0.10;;
69542;SDS011;56762;49.494;11.768;2023-01-16T11:54:53;0.70;;;0.00;;
69542;SDS011;56762;49.494;11.768;2023-01-16T11:57:27;2.03;;;0.17;;
69542;SDS011;56762;49.494;11.768;2023-01-16T12:00:06;0.60;;;0.10;;
69542;SDS011;56762;49.494;11.768;2023-01-16T12:03:02;0.93;;;0.20;;
69542;SDS011;56762;49.494;11.768;2023-01-16T12:05:50;0.90;;;0.10;;
69542;SDS011;56762;49.494;11.768;2023-01-16T12:08:37;1.77;;;0.10;;
69542;SDS011;56762;49.494;11.768;2023-01-16T12:11:15;1.70;;;0.08;;
69542;SDS011;56762;49.494;11.768;2023-01-16T12:13:57;0.93;;;0.00;;
69542;SDS011;56762;49.494;11.768;2023-01-16T12:16:55;1.17;;;0.00;;
69542;SDS011;56762;49.494;11.768;2023-01-16T12:19:46;1.55;;;0.10;;
69542;SDS011;56762;49.494;11.768;2023-01-16T12:22:26;1.42;;;0.10;;
69542;SDS011;56762;49.494;11.768;2023-01-16T12:25:12;1.02;;;0.10;;
69542;SDS011;56762;49.494;11.768;2023-01-16T12:27:49;0.85;;;0.10;;
69542;SDS011;56762;49.494;11.768;2023-01-16T12:30:29;1.70;;;0.10;;
69542;SDS011;56762;49.494;11.768;2023-01-16T12:33:09;2.65;;;0.10;;
69542;SDS011;56762;49.494;11.768;2023-01-16T12:35:50;0.98;;;0.10;;
69542;SDS011;56762;49.494;11.768;2023-01-16T12:38:26;1.17;;;0.05;;
69542;SDS011;56762;49.494;11.768;2023-01-16T12:41:07;0.70;;;0.00;;
69542;SDS011;56762;49.494;11.768;2023-01-16T12:47:20;2.35;;;0.30;;
69542;SDS011;56762;49.494;11.768;2023-01-16T12:50:03;1.38;;;0.13;;
69542;SDS011;56762;49.494;11.768;2023-01-16T12:52:40;1.45;;;0.30;;
69542;SDS011;56762;49.494;11.768;2023-01-16T12:55:20;0.73;;;0.10;;
69542;SDS011;56762;49.494;11.768;2023-01-16T12:58:11;1.17;;;0.10;;
69542;SDS011;56762;49.494;11.768;2023-01-16T13:00:42;1.88;;;0.30;;
69542;SDS011;56762;49.494;11.768;2023-01-16T13:03:15;2.97;;;0.20;;
69542;SDS011;56762;49.494;11.768;2023-01-16T13:05:48;0.70;;;0.20;;
69542;SDS011;56762;49.494;11.768;2023-01-16T13:08:20;1.77;;;0.10;;
69542;SDS011;56762;49.494;11.768;2023-01-16T13:10:56;1.07;;;0.30;;
69542;SDS011;56762;49.494;11.768;2023-01-16T13:13:45;1.00;;;0.20;;
69542;SDS011;56762;49.494;11.768;2023-01-16T13:16:19;0.73;;;0.10;;
69542;SDS011;56762;49.494;11.768;2023-01-16T13:18:51;1.58;;;0.20;;
69542;SDS011;56762;49.494;11.768;2023-01-16T13:21:23;1.40;;;0.20;;
69542;SDS011;56762;49.494;11.768;2023-01-16T13:23:54;3.07;;;0.47;;
69542;SDS011;56762;49.494;11.768;2023-01-16T13:26:27;2.20;;;0.40;;
69542;SDS011;56762;49.494;11.768;2023-01-16T13:28:57;2.22;;;0.40;;
69542;SDS011;56762;49.494;11.768;2023-01-16T13:31:31;2.42;;;0.28;;
69542;SDS011;56762;49.494;11.768;2023-01-16T13:34:03;3.38;;;0.70;;
69542;SDS011;56762;49.494;11.768;2023-01-16T13:36:44;2.47;;;0.30;;
69542;SDS011;56762;49.494;11.768;2023-01-16T13:42:28;2.13;;;0.40;;
69542;SDS011;56762;49.494;11.768;2023-01-16T13:44:59;2.88;;;0.40;;
69542;SDS011;56762;49.494;11.768;2023-01-16T13:47:47;1.55;;;0.20;;
69542;SDS011;56762;49.494;11.768;2023-01-16T13:50:17;2.13;;;0.50;;
69542;SDS011;56762;49.494;11.768;2023-01-16T13:52:48;1.08;;;0.10;;
69542;SDS011;56762;49.494;11.768;2023-01-16T13:55:21;1.70;;;0.30;;
69542;SDS011;56762;49.494;11.768;2023-01-16T13:58:05;1.52;;;0.30;;
69542;SDS011;56762;49.494;11.768;2023-01-16T14:00:35;2.35;;;0.75;;
69542;SDS011;56762;49.494;11.768;2023-01-16T14:03:18;3.00;;;0.20;;
69542;SDS011;56762;49.494;11.768;2023-01-16T14:05:49;1.17;;;0.17;;
69542;SDS011;56762;49.494;11.768;2023-01-16T14:08:19;1.35;;;0.20;;
69542;SDS011;56762;49.494;11.768;2023-01-16T14:11:14;1.85;;;0.22;;
69542;SDS011;56762;49.494;11.768;2023-01-16T14:17:25;2.93;;;0.43;;
69542;SDS011;56762;49.494;11.768;2023-01-16T14:19:55;2.38;;;0.47;;
69542;SDS011;56762;49.494;11.768;2023-01-16T14:22:26;2.83;;;0.68;;
69542;SDS011;56762;49.494;11.768;2023-01-16T14:25:20;1.08;;;0.22;;
69542;SDS011;56762;49.494;11.768;2023-01-16T14:27:51;1.90;;;0.30;;
69542;SDS011;56762;49.494;11.768;2023-01-16T14:30:24;0.80;;;0.10;;
69542;SDS011;56762;49.494;11.768;2023-01-16T14:32:55;2.58;;;0.50;;
69542;SDS011;56762;49.494;11.768;2023-01-16T14:35:27;2.17;;;0.40;;
69542;SDS011;56762;49.494;11.768;2023-01-16T14:37:58;1.58;;;0.40;;
69542;SDS011;56762;49.494;11.768;2023-01-16T14:40:30;2.40;;;0.63;;
69542;SDS011;56762;49.494;11.768;2023-01-16T14:43:26;1.13;;;0.20;;
69542;SDS011;56762;49.494;11.768;2023-01-16T14:46:21;2.60;;;0.65;;
69542;SDS011;56762;49.494;11.768;2023-01-16T14:55:45;4.80;;;1.17;;
69542;SDS011;56762;49.494;11.768;2023-01-16T14:58:19;3.93;;;0.37;;
69542;SDS011;56762;49.494;11.768;2023-01-16T15:00:51;1.95;;;0.47;;
69542;SDS011;56762;49.494;11.768;2023-01-16T15:03:43;2.47;;;0.50;;
69542;SDS011;56762;49.494;11.768;2023-01-16T15:06:14;4.93;;;1.20;;
69542;SDS011;56762;49.494;11.768;2023-01-16T15:08:42;6.22;;;1.77;;
69542;SDS011;56762;49.494;11.768;2023-01-16T15:11:12;12.73;;;4.20;;
69542;SDS011;56762;49.494;11.768;2023-01-16T15:14:09;9.65;;;3.03;;
69542;SDS011;56762;49.494;11.768;2023-01-16T15:16:59;2.17;;;0.60;;
69542;SDS011;56762;49.494;11.768;2023-01-16T15:19:55;1.30;;;0.30;;
69542;SDS011;56762;49.494;11.768;2023-01-16T15:22:46;6.63;;;2.13;;
69542;SDS011;56762;49.494;11.768;2023-01-16T15:25:19;10.70;;;4.10;;
69542;SDS011;56762;49.494;11.768;2023-01-16T15:28:00;7.90;;;3.03;;
69542;SDS011;56762;49.494;11.768;2023-01-16T15:30:34;8.13;;;3.15;;
69542;SDS011;56762;49.494;11.768;2023-01-16T15:33:02;6.43;;;3.10;;